RJSK Airport Information

Runway Information
Runway 10 Length 8200 ft width 200 ft Elevation 289 ft Threshold N/A Heading 97
Runway 28 Length 8200 ft Width 200 ft Elevation 314 ft Threshold N/A Heading 277
Airport Frequencies
Type A/G Name SAPPORO IN Frequency 127.1 MHZ
Type TWR Name TWR Frequency 118.6 MHZ
Airport Navaids
Type VOR-DME Name Akita Frequency 116100 KHZ
Type VOR-DME Name Yuwa Frequency 110650 KHZ
Airport Weather Information & NOTAM
ADDS - METARS form results

(1920 UTC 27 November 2022)
Data provider http://aviationweather.gov/metar/data/
 
Forecast for: RJSK (AKITA AIRPORT , JP)
Text: TAF RJSK 271707Z 2718/2900 14008KT 9999 FEW030
Forecast period: 1800 UTC 27 November 2022 to 0000 UTC 29 November 2022
Forecast type: FROM: standard forecast or significant change
Winds: from the SE (140 degrees) at 9 MPH (8 knots; 4.1 m/s)
Visibility: 6 or more miles (10+ km)
Ceiling: at least 12,000 feet AGL
Clouds: few clouds at 3000 feet AGL
Weather: no significant weather forecast for this period